Time;durP1;ratioP1;P1;durP2;ratioP2;P2;SDS_P1;SDS_P2;PMS_P1;PMS_P2;Temp;Humidity;BMP_temperature;BMP_pressure;BME280_temperature;BME280_humidity;BME280_pressure;Samples;Min_cycle;Max_cycle;Signal;HPM_P1;HPM_P2
2021/09/07 00:00:55;;;;;;;32.50;20.35;;;18.70;99.90;;;;;;5126924;28;20162;-73
2021/09/07 00:03:21;;;;;;;29.65;19.15;;;18.60;99.90;;;;;;5126820;28;20167;-73
2021/09/07 00:05:46;;;;;;;29.52;21.35;;;18.80;99.90;;;;;;5126405;28;20178;-73
2021/09/07 00:08:12;;;;;;;29.73;20.98;;;18.90;99.90;;;;;;5125929;28;20214;-73
2021/09/07 00:10:38;;;;;;;35.33;21.98;;;18.90;99.90;;;;;;5126098;28;20285;-73
2021/09/07 00:13:04;;;;;;;33.63;22.73;;;19.00;99.90;;;;;;5126827;28;20161;-73
2021/09/07 00:15:29;;;;;;;33.53;21.90;;;18.90;99.90;;;;;;5126527;28;20159;-74
2021/09/07 00:17:55;;;;;;;33.17;22.50;;;18.80;99.90;;;;;;5126423;28;20174;-73
2021/09/07 00:20:23;;;;;;;33.00;23.33;;;18.70;99.90;;;;;;5108288;28;20174;-74
2021/09/07 00:22:49;;;;;;;36.03;21.95;;;18.50;99.90;;;;;;5126600;28;20190;-73
2021/09/07 00:25:15;;;;;;;33.13;21.40;;;18.40;99.90;;;;;;5126319;28;20178;-73
2021/09/07 00:27:40;;;;;;;30.90;22.08;;;18.30;99.90;;;;;;5126356;28;20182;-74
2021/09/07 00:30:07;;;;;;;30.95;21.17;;;18.30;99.90;;;;;;5126332;28;20179;-74
2021/09/07 00:32:32;;;;;;;34.90;22.88;;;18.30;99.90;;;;;;5126524;28;20155;-73
2021/09/07 00:34:58;;;;;;;37.28;22.23;;;18.40;99.90;;;;;;5126558;28;20654;-73
2021/09/07 00:37:24;;;;;;;38.47;22.23;;;18.40;99.90;;;;;;5126255;28;20171;-73
2021/09/07 00:39:49;;;;;;;31.83;22.13;;;18.40;99.90;;;;;;5108011;28;20177;-74
2021/09/07 00:42:15;;;;;;;30.40;20.88;;;18.30;99.90;;;;;;5126559;28;20159;-73
2021/09/07 00:44:41;;;;;;;30.83;21.35;;;18.30;99.90;;;;;;5126350;28;20233;-74
2021/09/07 00:47:07;;;;;;;34.58;20.77;;;18.30;99.90;;;;;;5126130;28;20167;-74
2021/09/07 00:49:35;;;;;;;38.60;21.42;;;18.40;99.90;;;;;;5126383;28;20194;-73
2021/09/07 00:52:02;;;;;;;28.83;21.65;;;18.40;99.90;;;;;;5126186;28;20189;-74
2021/09/07 00:54:30;;;;;;;30.25;22.05;;;18.40;99.90;;;;;;5126662;28;20166;-73
2021/09/07 00:56:58;;;;;;;33.70;22.08;;;18.30;99.90;;;;;;5129916;28;20194;-74
2021/09/07 00:59:24;;;;;;;32.60;22.45;;;18.30;99.90;;;;;;5130191;28;20159;-73
2021/09/07 01:01:50;;;;;;;35.47;22.55;;;18.40;99.90;;;;;;5130167;28;20193;-74
2021/09/07 01:04:16;;;;;;;32.08;22.45;;;18.40;99.90;;;;;;5130152;28;20163;-73
2021/09/07 01:06:42;;;;;;;36.90;22.77;;;18.30;99.90;;;;;;5129741;28;20174;-73
2021/09/07 01:09:08;;;;;;;30.98;21.70;;;18.20;99.90;;;;;;5129716;28;20214;-73
2021/09/07 01:11:34;;;;;;;33.22;21.92;;;18.10;99.90;;;;;;5129551;28;20178;-74
2021/09/07 01:14:01;;;;;;;30.35;20.50;;;18.30;99.90;;;;;;5129868;28;20162;-73
2021/09/07 01:16:27;;;;;;;32.70;20.85;;;18.30;99.90;;;;;;5129542;28;20205;-74
2021/09/07 01:18:52;;;;;;;35.55;21.75;;;18.20;99.90;;;;;;5129909;28;20258;-73
2021/09/07 01:21:18;;;;;;;29.80;21.88;;;18.10;99.90;;;;;;5129832;28;20429;-73
2021/09/07 01:23:46;;;;;;;32.00;21.20;;;18.00;99.90;;;;;;5129841;28;20711;-74
2021/09/07 01:26:15;;;;;;;33.88;22.08;;;18.00;99.90;;;;;;5129180;28;20171;-73
2021/09/07 01:28:41;;;;;;;36.17;22.58;;;18.10;99.90;;;;;;5111271;28;20210;-73
2021/09/07 01:31:07;;;;;;;33.78;22.30;;;18.10;99.90;;;;;;5111095;28;20170;-74
2021/09/07 01:33:34;;;;;;;35.92;21.23;;;18.00;99.90;;;;;;5129660;28;20193;-73
2021/09/07 01:36:00;;;;;;;29.30;21.33;;;17.90;99.90;;;;;;5110814;28;20187;-74
2021/09/07 01:38:28;;;;;;;30.70;21.13;;;17.80;99.90;;;;;;5111264;28;20167;-74
2021/09/07 01:40:54;;;;;;;34.28;22.25;;;17.90;99.90;;;;;;5128748;28;20175;-73
2021/09/07 01:43:20;;;;;;;38.72;22.10;;;17.90;99.90;;;;;;5129581;28;20162;-73
2021/09/07 01:45:51;;;;;;;30.50;21.05;;;17.90;99.90;;;;;;5128972;28;20189;-73
2021/09/07 01:48:21;;;;;;;32.42;21.17;;;17.80;99.90;;;;;;5110741;28;20218;-73
2021/09/07 01:50:47;;;;;;;28.75;20.65;;;17.80;99.90;;;;;;5129235;28;20159;-73
2021/09/07 01:53:13;;;;;;;36.78;22.75;;;17.80;99.90;;;;;;5129180;28;20174;-74
2021/09/07 01:55:39;;;;;;;35.45;22.33;;;17.90;99.90;;;;;;5128634;28;20162;-73
2021/09/07 01:58:05;;;;;;;36.20;22.40;;;17.90;99.90;;;;;;5129001;28;20178;-74
2021/09/07 02:00:31;;;;;;;35.28;23.55;;;17.90;99.90;;;;;;5110792;28;20222;-74
2021/09/07 02:02:56;;;;;;;35.38;23.27;;;17.90;99.90;;;;;;5129076;28;20167;-73
2021/09/07 02:05:22;;;;;;;34.92;23.67;;;18.10;99.90;;;;;;5128735;28;20245;-74
2021/09/07 02:07:48;;;;;;;39.85;24.58;;;18.00;99.90;;;;;;5128371;28;20217;-74
2021/09/07 02:10:14;;;;;;;42.58;25.80;;;17.90;99.90;;;;;;5128576;28;20197;-74
2021/09/07 02:12:40;;;;;;;37.67;23.20;;;17.80;99.90;;;;;;5129065;28;20207;-74
2021/09/07 02:15:07;;;;;;;34.97;23.75;;;17.60;99.90;;;;;;5128653;28;20166;-73
2021/09/07 02:17:33;;;;;;;39.22;23.15;;;17.50;99.90;;;;;;5128551;28;20174;-73
2021/09/07 02:20:00;;;;;;;34.70;22.58;;;17.60;99.90;;;;;;5110298;28;20170;-73
2021/09/07 02:22:26;;;;;;;35.38;23.52;;;17.70;99.90;;;;;;5128733;28;20192;-74
2021/09/07 02:24:52;;;;;;;33.97;22.60;;;17.70;99.90;;;;;;5110017;28;20579;-74
2021/09/07 02:27:19;;;;;;;33.97;23.42;;;17.60;99.90;;;;;;5128171;28;20163;-73
2021/09/07 02:29:45;;;;;;;34.03;23.83;;;17.50;99.90;;;;;;5128488;28;20218;-73
2021/09/07 02:32:11;;;;;;;40.15;24.85;;;17.60;99.90;;;;;;5128505;28;20159;-73
2021/09/07 02:34:37;;;;;;;35.42;23.73;;;17.50;99.90;;;;;;5128305;28;20170;-73
2021/09/07 02:37:03;;;;;;;35.33;24.35;;;17.50;99.90;;;;;;5128047;28;20198;-73
2021/09/07 02:39:29;;;;;;;35.67;23.77;;;17.40;99.90;;;;;;5128195;28;20222;-74
2021/09/07 02:41:54;;;;;;;36.50;23.67;;;17.50;99.90;;;;;;5128357;28;20143;-74
2021/09/07 02:44:20;;;;;;;35.70;22.98;;;17.70;99.90;;;;;;5109791;28;20158;-73
2021/09/07 02:46:46;;;;;;;37.90;21.95;;;17.70;99.90;;;;;;5127840;28;20181;-74
2021/09/07 02:49:12;;;;;;;31.23;21.65;;;17.50;99.90;;;;;;5128073;28;20193;-74
2021/09/07 02:51:38;;;;;;;34.58;21.98;;;17.30;99.90;;;;;;5127919;28;20165;-73
2021/09/07 02:54:04;;;;;;;37.45;22.25;;;17.10;99.90;;;;;;5128064;28;20158;-73
2021/09/07 02:56:30;;;;;;;38.47;23.67;;;17.00;99.90;;;;;;5109193;28;20638;-74
2021/09/07 02:58:56;;;;;;;34.38;23.02;;;16.90;99.90;;;;;;5127966;28;20170;-73
2021/09/07 03:01:22;;;;;;;40.30;24.05;;;17.00;99.90;;;;;;5127820;28;20161;-74
2021/09/07 03:03:47;;;;;;;37.45;24.25;;;17.00;99.90;;;;;;5109668;28;20197;-73
2021/09/07 03:06:13;;;;;;;40.63;24.73;;;17.10;99.90;;;;;;5127350;28;20162;-73
2021/09/07 03:08:39;;;;;;;35.63;24.90;;;17.10;99.90;;;;;;5127484;28;20255;-74
2021/09/07 03:11:04;;;;;;;42.28;25.88;;;17.10;99.90;;;;;;5108993;28;20283;-74
2021/09/07 03:13:30;;;;;;;42.63;26.42;;;17.10;99.90;;;;;;5109581;28;20159;-74
2021/09/07 03:15:56;;;;;;;39.97;25.33;;;17.20;99.90;;;;;;5127348;28;20159;-74
2021/09/07 03:18:21;;;;;;;33.20;23.98;;;17.10;99.90;;;;;;5127039;28;20174;-74
2021/09/07 03:20:47;;;;;;;37.15;24.70;;;17.10;99.90;;;;;;5127618;28;20177;-74
2021/09/07 03:23:13;;;;;;;40.53;25.35;;;17.10;99.90;;;;;;5127534;28;20167;-74
2021/09/07 03:25:38;;;;;;;34.92;22.98;;;17.20;99.90;;;;;;5108617;28;20173;-74
2021/09/07 03:28:04;;;;;;;37.05;22.95;;;17.30;99.90;;;;;;5127094;28;20246;-74
2021/09/07 03:30:30;;;;;;;36.10;24.27;;;17.40;99.90;;;;;;5127365;28;20163;-74
2021/09/07 03:32:56;;;;;;;36.88;22.70;;;17.30;99.90;;;;;;5108871;28;20159;-74
2021/09/07 03:35:21;;;;;;;31.63;23.05;;;17.00;99.90;;;;;;5108737;28;20159;-74
2021/09/07 03:37:47;;;;;;;35.50;23.38;;;16.90;99.90;;;;;;5126867;28;20201;-73
2021/09/07 03:40:13;;;;;;;39.13;24.45;;;16.90;99.90;;;;;;5126600;28;20178;-73
2021/09/07 03:42:40;;;;;;;37.70;23.50;;;16.80;99.90;;;;;;5108782;28;20174;-73
2021/09/07 03:45:07;;;;;;;35.70;24.20;;;16.80;99.90;;;;;;5126742;28;20566;-74
2021/09/07 03:47:33;;;;;;;35.92;23.35;;;16.80;99.90;;;;;;5108187;28;20181;-74
2021/09/07 03:49:59;;;;;;;35.75;23.80;;;16.80;99.90;;;;;;5127003;28;20581;-74
2021/09/07 03:52:24;;;;;;;39.42;24.83;;;16.70;99.90;;;;;;5126742;28;20181;-74
2021/09/07 03:54:50;;;;;;;32.47;23.42;;;16.70;99.90;;;;;;5126559;28;20154;-74
2021/09/07 03:57:15;;;;;;;40.28;27.35;;;16.70;99.90;;;;;;5125802;28;20410;-74
2021/09/07 03:59:41;;;;;;;34.78;23.83;;;16.90;99.90;;;;;;5126996;28;20482;-74
2021/09/07 04:02:07;;;;;;;34.92;23.15;;;16.90;99.90;;;;;;5126613;28;20188;-73
2021/09/07 04:04:32;;;;;;;37.00;23.55;;;16.80;99.90;;;;;;5126751;28;20167;-74
2021/09/07 04:06:58;;;;;;;38.00;25.57;;;16.70;99.90;;;;;;5125876;28;20437;-74
2021/09/07 04:09:24;;;;;;;36.10;24.65;;;16.90;99.90;;;;;;5108194;28;20287;-74
2021/09/07 04:11:50;;;;;;;43.40;28.00;;;16.90;99.90;;;;;;5125734;28;20409;-73
2021/09/07 04:14:17;;;;;;;37.00;24.58;;;17.10;99.90;;;;;;5126646;28;20155;-74
2021/09/07 04:16:43;;;;;;;39.25;25.75;;;17.00;99.90;;;;;;5108095;28;20169;-73
2021/09/07 04:19:09;;;;;;;46.55;25.73;;;16.80;99.90;;;;;;5126787;28;20162;-74
2021/09/07 04:21:35;;;;;;;41.47;25.45;;;16.70;99.90;;;;;;5126595;28;20158;-73
2021/09/07 04:24:00;;;;;;;40.80;25.50;;;16.70;99.90;;;;;;5126805;28;20162;-73
2021/09/07 04:26:26;;;;;;;38.00;25.58;;;16.70;99.90;;;;;;5125940;28;20178;-73
2021/09/07 04:28:51;;;;;;;39.00;26.95;;;16.70;99.90;;;;;;5126404;28;20182;-74
2021/09/07 04:31:18;;;;;;;43.80;25.80;;;16.70;99.90;;;;;;5130447;28;20631;-74
2021/09/07 04:33:44;;;;;;;40.20;25.45;;;16.70;99.90;;;;;;5130637;28;20166;-73
2021/09/07 04:36:10;;;;;;;46.92;27.48;;;16.80;99.90;;;;;;5130243;28;20170;-74
2021/09/07 04:38:36;;;;;;;45.92;26.20;;;16.70;99.90;;;;;;5111916;28;20162;-74
2021/09/07 04:41:01;;;;;;;44.38;26.65;;;16.70;99.90;;;;;;5130088;28;20171;-73
2021/09/07 04:43:27;;;;;;;48.17;28.30;;;16.70;99.90;;;;;;5130417;28;20169;-73
2021/09/07 04:45:53;;;;;;;42.75;27.20;;;16.70;99.90;;;;;;5111749;28;20182;-74
2021/09/07 04:48:18;;;;;;;43.25;28.20;;;16.70;99.90;;;;;;5130244;28;20183;-74
2021/09/07 04:50:44;;;;;;;40.08;27.08;;;16.70;99.90;;;;;;5130279;28;20167;-74
2021/09/07 04:53:10;;;;;;;40.55;25.90;;;16.70;99.90;;;;;;5130325;28;20166;-75
2021/09/07 04:55:35;;;;;;;41.25;26.27;;;16.60;99.90;;;;;;5129845;28;20167;-73
2021/09/07 04:58:01;;;;;;;44.70;26.90;;;16.60;99.90;;;;;;5111762;28;20241;-74
2021/09/07 05:00:27;;;;;;;44.80;27.83;;;16.70;99.90;;;;;;5129972;28;20168;-74
2021/09/07 05:02:52;;;;;;;41.47;26.27;;;16.70;99.90;;;;;;5129889;28;20167;-75
2021/09/07 05:05:18;;;;;;;47.47;27.42;;;16.80;99.90;;;;;;5129647;28;20167;-74
2021/09/07 05:07:43;;;;;;;54.20;27.98;;;16.70;99.90;;;;;;5129280;28;20290;-74
2021/09/07 05:10:10;;;;;;;43.25;27.45;;;16.70;99.90;;;;;;5129436;28;20174;-74
2021/09/07 05:12:36;;;;;;;44.72;27.50;;;16.80;99.90;;;;;;5129403;28;20159;-74
2021/09/07 05:15:02;;;;;;;42.72;27.60;;;16.70;99.90;;;;;;5111069;28;20162;-74
2021/09/07 05:17:27;;;;;;;47.22;27.17;;;16.60;99.90;;;;;;5129612;28;20170;-73
2021/09/07 05:19:53;;;;;;;46.28;27.83;;;16.60;99.90;;;;;;5129657;28;20163;-74
2021/09/07 05:22:18;;;;;;;42.63;25.70;;;16.60;99.90;;;;;;5111298;28;20173;-74
2021/09/07 05:24:44;;;;;;;36.65;25.00;;;16.60;99.90;;;;;;5129270;28;20173;-73
2021/09/07 05:27:10;;;;;;;38.95;25.75;;;16.50;99.90;;;;;;5129238;28;20170;-74
2021/09/07 05:29:35;;;;;;;44.47;27.92;;;16.60;99.90;;;;;;5110904;28;20197;-74
2021/09/07 05:32:01;;;;;;;39.55;27.05;;;16.50;99.90;;;;;;5129312;28;20172;-74
2021/09/07 05:34:29;;;;;;;52.30;28.90;;;16.60;99.90;;;;;;5129190;28;20190;-74
2021/09/07 05:36:55;;;;;;;44.67;27.38;;;16.70;99.90;;;;;;5128974;28;20166;-75
2021/09/07 05:39:21;;;;;;;41.95;26.98;;;16.70;99.90;;;;;;5110891;28;20522;-73
2021/09/07 05:41:48;;;;;;;46.42;29.23;;;16.70;99.90;;;;;;5109782;28;20174;-74
2021/09/07 05:44:14;;;;;;;44.13;27.85;;;16.60;99.90;;;;;;5129114;28;20158;-73
2021/09/07 05:46:40;;;;;;;47.30;27.45;;;16.70;99.90;;;;;;5110524;28;20223;-74
2021/09/07 05:49:05;;;;;;;46.65;28.60;;;16.70;99.90;;;;;;5129123;28;20182;-74
2021/09/07 05:51:31;;;;;;;46.38;26.13;;;16.80;99.90;;;;;;5128994;28;20664;-74
2021/09/07 05:53:56;;;;;;;48.10;28.40;;;16.80;99.90;;;;;;5128822;28;20165;-74
2021/09/07 05:56:23;;;;;;;39.55;26.15;;;16.80;99.90;;;;;;5128460;28;20178;-74
2021/09/07 05:58:49;;;;;;;40.63;27.50;;;16.90;99.90;;;;;;5128958;28;20704;-74
2021/09/07 06:01:14;;;;;;;43.40;27.20;;;17.00;99.90;;;;;;5128777;28;20189;-74
2021/09/07 06:03:40;;;;;;;45.70;27.58;;;17.10;99.90;;;;;;5128855;28;20169;-74
2021/09/07 06:06:05;;;;;;;48.78;27.55;;;17.00;99.90;;;;;;5128828;28;20168;-75
2021/09/07 06:08:31;;;;;;;47.63;27.10;;;17.10;99.90;;;;;;5128389;28;20565;-74
2021/09/07 06:10:57;;;;;;;45.20;27.27;;;17.20;99.90;;;;;;5128129;28;20510;-74
2021/09/07 06:13:22;;;;;;;50.22;29.05;;;17.20;99.90;;;;;;5128775;28;20169;-74
2021/09/07 06:15:49;;;;;;;41.28;26.63;;;17.20;99.90;;;;;;5128329;28;20158;-74
2021/09/07 06:18:14;;;;;;;45.33;27.75;;;17.20;99.90;;;;;;5128307;28;20171;-74
2021/09/07 06:20:40;;;;;;;45.00;28.17;;;17.40;99.90;;;;;;5128564;28;20174;-74
2021/09/07 06:23:06;;;;;;;45.42;29.55;;;17.40;99.90;;;;;;5128351;28;20530;-74
2021/09/07 06:25:31;;;;;;;48.42;29.58;;;17.60;99.90;;;;;;5127732;28;20168;-74
2021/09/07 06:27:57;;;;;;;42.78;30.05;;;17.50;99.90;;;;;;5127853;28;20330;-74
2021/09/07 06:30:23;;;;;;;46.63;29.00;;;17.60;99.90;;;;;;5128265;28;20188;-74
2021/09/07 06:32:48;;;;;;;46.95;29.48;;;17.60;99.90;;;;;;5109956;28;20162;-75
2021/09/07 06:35:14;;;;;;;46.80;28.40;;;17.70;99.90;;;;;;5110033;28;20213;-74
2021/09/07 06:37:42;;;;;;;45.80;29.40;;;17.70;99.90;;;;;;5127766;28;20170;-74
2021/09/07 06:40:08;;;;;;;52.15;31.13;;;17.70;99.90;;;;;;5127630;28;20155;-74
2021/09/07 06:42:34;;;;;;;51.47;30.88;;;17.80;99.90;;;;;;5128155;28;20143;-74
2021/09/07 06:44:59;;;;;;;48.83;29.77;;;18.00;99.90;;;;;;5127954;28;20155;-74
2021/09/07 06:47:25;;;;;;;54.85;31.10;;;18.00;99.90;;;;;;5127495;28;20163;-74
2021/09/07 06:49:51;;;;;;;55.40;30.25;;;18.10;99.90;;;;;;5128070;28;20204;-74
2021/09/07 06:52:16;;;;;;;60.53;31.33;;;18.20;99.90;;;;;;5126809;28;20183;-74
2021/09/07 06:54:42;;;;;;;53.17;30.90;;;18.30;99.90;;;;;;5127818;28;20155;-74
2021/09/07 06:57:08;;;;;;;49.40;31.15;;;18.30;99.90;;;;;;5108619;28;20174;-74
2021/09/07 06:59:33;;;;;;;55.58;32.45;;;18.40;99.90;;;;;;5127114;28;20167;-74
2021/09/07 07:01:59;;;;;;;51.28;29.85;;;18.50;99.90;;;;;;5125839;28;20168;-74
2021/09/07 07:04:24;;;;;;;48.75;30.23;;;18.60;99.90;;;;;;5108514;28;20580;-74
2021/09/07 07:06:50;;;;;;;53.25;31.05;;;18.80;99.90;;;;;;5127113;28;20155;-74
2021/09/07 07:09:16;;;;;;;53.58;29.67;;;18.90;99.90;;;;;;5127324;28;20675;-74
2021/09/07 07:11:41;;;;;;;56.92;31.73;;;19.00;99.90;;;;;;5108749;28;20170;-74
2021/09/07 07:14:07;;;;;;;49.60;30.60;;;19.10;99.90;;;;;;5127196;28;20165;-74
2021/09/07 07:16:33;;;;;;;55.75;29.52;;;19.20;99.90;;;;;;5127004;28;20182;-74
2021/09/07 07:18:58;;;;;;;54.80;29.98;;;19.30;99.90;;;;;;5126948;28;20188;-74
2021/09/07 07:21:24;;;;;;;45.22;29.77;;;19.40;99.90;;;;;;5126866;28;20647;-74
2021/09/07 07:23:49;;;;;;;43.10;28.52;;;19.50;99.90;;;;;;5127298;28;20623;-73
2021/09/07 07:26:16;;;;;;;56.13;31.33;;;19.60;99.90;;;;;;5126758;28;20198;-74
2021/09/07 07:28:41;;;;;;;48.33;29.67;;;19.70;99.90;;;;;;5127082;28;20212;-74
2021/09/07 07:31:07;;;;;;;47.25;29.08;;;19.80;99.90;;;;;;5108684;28;20158;-74
2021/09/07 07:33:32;;;;;;;61.38;30.30;;;19.90;99.90;;;;;;5126910;28;20206;-74
2021/09/07 07:35:58;;;;;;;54.55;28.02;;;20.00;99.90;;;;;;5126634;28;20155;-74
2021/09/07 07:38:24;;;;;;;55.17;31.52;;;20.20;99.90;;;;;;5126460;28;20166;-74
2021/09/07 07:40:49;;;;;;;51.78;30.67;;;20.20;99.90;;;;;;5126376;28;20170;-73
2021/09/07 07:43:16;;;;;;;56.90;31.88;;;20.30;99.90;;;;;;5127017;28;20159;-74
2021/09/07 07:45:42;;;;;;;45.45;28.75;;;20.40;99.90;;;;;;5126763;28;20163;-73
2021/09/07 07:48:08;;;;;;;52.85;30.20;;;20.50;99.90;;;;;;5108235;28;20201;-74
2021/09/07 07:50:36;;;;;;;47.97;29.13;;;20.60;99.90;;;;;;5126946;28;20170;-74
2021/09/07 07:53:02;;;;;;;44.75;28.70;;;20.70;99.90;;;;;;5126522;28;20163;-73
2021/09/07 07:55:29;;;;;;;48.88;28.38;;;20.70;99.90;;;;;;5107681;28;20597;-73
2021/09/07 07:57:54;;;;;;;41.33;27.63;;;20.80;99.90;;;;;;5126241;28;20228;-74
2021/09/07 08:00:20;;;;;;;46.90;29.17;;;20.90;99.90;;;;;;5126802;28;20633;-74
2021/09/07 08:02:46;;;;;;;45.47;28.02;;;21.00;99.90;;;;;;5108323;28;20173;-74
2021/09/07 08:05:11;;;;;;;39.70;28.02;;;21.10;99.90;;;;;;5126586;28;20560;-73
2021/09/07 08:07:37;;;;;;;47.65;26.88;;;21.20;99.90;;;;;;5125638;28;20228;-74
2021/09/07 08:10:03;;;;;;;43.30;26.95;;;21.30;99.90;;;;;;5126287;28;20151;-74
2021/09/07 08:12:29;;;;;;;40.40;26.27;;;21.40;99.90;;;;;;5126674;28;20166;-73
2021/09/07 08:14:54;;;;;;;59.63;28.52;;;21.50;99.90;;;;;;5126544;28;20159;-73
2021/09/07 08:17:20;;;;;;;48.95;27.60;;;21.60;99.90;;;;;;5107398;28;20186;-74
2021/09/07 08:19:45;;;;;;;49.03;26.65;;;21.70;99.90;;;;;;5126480;28;20163;-74
2021/09/07 08:22:13;;;;;;;40.83;26.70;;;21.80;99.90;;;;;;5126225;28;20169;-73
2021/09/07 08:24:39;;;;;;;51.58;28.13;;;21.90;99.90;;;;;;5126460;28;20558;-74
2021/09/07 08:27:05;;;;;;;49.25;29.48;;;21.90;99.90;;;;;;5107331;28;20167;-74
2021/09/07 08:29:31;;;;;;;48.45;26.77;;;22.10;99.90;;;;;;5126232;28;20266;-74
2021/09/07 08:31:57;;;;;;;44.00;26.83;;;22.20;99.90;;;;;;5108101;28;20163;-74
2021/09/07 08:34:24;;;;;;;42.88;25.95;;;22.30;99.90;;;;;;5126660;28;20159;-74
2021/09/07 08:36:49;;;;;;;52.33;27.08;;;22.40;99.90;;;;;;5126328;28;20173;-74
2021/09/07 08:39:15;;;;;;;52.08;27.50;;;22.40;99.90;;;;;;5126373;28;20175;-74
2021/09/07 08:41:42;;;;;;;46.03;24.42;;;22.50;99.90;;;;;;5125938;28;20173;-74
2021/09/07 08:44:08;;;;;;;42.90;24.60;;;22.60;99.90;;;;;;5107734;28;20192;-75
2021/09/07 08:46:33;;;;;;;42.00;24.40;;;22.70;99.90;;;;;;5126082;28;20163;-75
2021/09/07 08:48:59;;;;;;;42.97;26.70;;;22.80;99.90;;;;;;5126237;28;20179;-74
2021/09/07 08:51:25;;;;;;;56.10;29.58;;;22.90;99.90;;;;;;5126313;28;20170;-74
2021/09/07 08:53:54;;;;;;;50.65;28.92;;;23.00;99.90;;;;;;5126165;28;20159;-74
2021/09/07 08:56:20;;;;;;;56.30;28.13;;;23.20;99.90;;;;;;5125807;28;20163;-74
2021/09/07 08:58:45;;;;;;;60.85;27.27;;;23.40;99.90;;;;;;5126154;28;20175;-73
2021/09/07 09:01:16;;;;;;;45.10;23.70;;;23.30;99.90;;;;;;5107585;28;20170;-73
2021/09/07 09:03:44;;;;;;;46.00;25.55;;;23.30;99.90;;;;;;5107773;28;20179;-73
2021/09/07 09:06:10;;;;;;;49.85;23.63;;;23.30;99.90;;;;;;5126122;28;20170;-74
2021/09/07 09:08:36;;;;;;;54.58;26.88;;;23.40;99.90;;;;;;5125563;28;20210;-73
2021/09/07 09:11:07;;;;;;;42.03;23.30;;;23.50;99.90;;;;;;5125523;28;20167;-73
2021/09/07 09:13:47;;;;;;;39.50;24.15;;;23.60;99.90;;;;;;5126207;28;20172;-73
2021/09/07 09:16:14;;;;;;;50.10;25.23;;;23.70;99.90;;;;;;5127970;28;20186;-73
2021/09/07 09:18:48;;;;;;;37.47;21.77;;;23.70;99.90;;;;;;5129610;28;20252;-74
2021/09/07 09:21:28;;;;;;;42.83;21.25;;;23.90;99.90;;;;;;5129568;28;20212;-73
2021/09/07 09:24:19;;;;;;;43.90;23.15;;;24.00;99.90;;;;;;5129726;28;20212;-73
2021/09/07 09:27:02;;;;;;;46.45;23.98;;;24.10;99.90;;;;;;5110972;28;20182;-73
2021/09/07 09:29:31;;;;;;;44.58;22.13;;;24.20;99.90;;;;;;5129502;28;20187;-73
2021/09/07 09:32:09;;;;;;;32.17;17.85;;;24.30;99.90;;;;;;5111115;28;20158;-73
2021/09/07 09:34:36;;;;;;;35.15;22.27;;;24.40;99.90;;;;;;5129219;28;20142;-73
2021/09/07 09:37:07;;;;;;;39.58;23.92;;;24.50;99.90;;;;;;5128814;28;20158;-72
2021/09/07 09:39:40;;;;;;;35.45;22.95;;;24.70;99.90;;;;;;5110920;28;20170;-73
2021/09/07 09:42:08;;;;;;;38.22;20.67;;;24.80;99.90;;;;;;5129099;28;20175;-72
2021/09/07 09:44:34;;;;;;;37.47;21.63;;;24.90;99.90;;;;;;5129238;28;20158;-73
2021/09/07 09:47:00;;;;;;;44.03;21.52;;;25.00;99.90;;;;;;5128955;28;20159;-73
2021/09/07 09:49:27;;;;;;;33.25;20.80;;;25.10;99.90;;;;;;5128983;28;20191;-73
2021/09/07 09:52:01;;;;;;;43.38;20.25;;;25.20;99.90;;;;;;5128895;28;20189;-73
2021/09/07 09:54:28;;;;;;;33.63;19.40;;;25.20;99.90;;;;;;5128924;28;20139;-72
2021/09/07 09:56:57;;;;;;;32.17;20.58;;;25.30;99.90;;;;;;5128237;28;20163;-73
2021/09/07 09:59:23;;;;;;;43.05;21.80;;;25.30;99.90;;;;;;5128823;28;20197;-73
2021/09/07 10:01:49;;;;;;;44.08;22.15;;;25.50;99.90;;;;;;5128812;28;20159;-73
2021/09/07 10:04:15;;;;;;;33.33;19.27;;;25.60;99.90;;;;;;5128963;28;20227;-73
2021/09/07 10:06:42;;;;;;;33.05;16.40;;;25.60;99.90;;;;;;5128665;28;20159;-73
2021/09/07 10:09:08;;;;;;;34.67;19.48;;;25.70;99.90;;;;;;5128039;28;20210;-73
2021/09/07 10:11:35;;;;;;;31.85;19.25;;;25.80;99.90;;;;;;5109882;28;20185;-73
2021/09/07 10:14:03;;;;;;;28.75;17.35;;;25.90;99.90;;;;;;5128685;28;20164;-74
2021/09/07 10:16:43;;;;;;;28.92;17.33;;;26.00;99.90;;;;;;5128626;28;20166;-74
2021/09/07 10:19:14;;;;;;;29.73;17.02;;;26.10;99.90;;;;;;5110360;28;20186;-73
2021/09/07 10:24:18;;;;;;;38.15;19.10;;;26.30;99.90;;;;;;5128863;28;20174;-74
2021/09/07 10:26:44;;;;;;;28.20;16.92;;;26.40;99.90;;;;;;5109350;28;20665;-73
2021/09/07 10:29:19;;;;;;;32.20;15.73;;;26.60;99.90;;;;;;5128169;28;20186;-74
2021/09/07 10:31:49;;;;;;;29.35;16.60;;;26.70;99.90;;;;;;5128182;28;20154;-73
2021/09/07 10:34:20;;;;;;;28.50;17.10;;;26.80;99.90;;;;;;5110002;28;20173;-74
2021/09/07 10:37:07;;;;;;;33.35;17.80;;;27.00;99.90;;;;;;5127554;28;20543;-73
2021/09/07 10:39:44;;;;;;;28.23;15.02;;;27.20;99.90;;;;;;5109681;28;20257;-74
2021/09/07 10:42:12;;;;;;;24.35;15.02;;;27.20;99.90;;;;;;5127696;28;20178;-74
2021/09/07 10:44:42;;;;;;;24.10;14.93;;;27.30;99.90;;;;;;5128213;28;20162;-73
2021/09/07 10:47:11;;;;;;;26.45;16.42;;;27.40;99.90;;;;;;5127757;28;20166;-74
2021/09/07 10:49:37;;;;;;;29.33;14.48;;;27.50;99.90;;;;;;5109351;28;20186;-73
2021/09/07 10:52:10;;;;;;;25.88;13.48;;;27.60;99.90;;;;;;5127738;28;20174;-74
2021/09/07 10:54:45;;;;;;;23.98;14.32;;;27.70;99.90;;;;;;5127589;28;20174;-73
2021/09/07 10:57:45;;;;;;;24.50;13.90;;;27.90;99.90;;;;;;5126871;28;20184;-73
2021/09/07 11:00:14;;;;;;;20.30;13.95;;;28.10;99.90;;;;;;5127884;28;20151;-73
2021/09/07 11:02:48;;;;;;;25.98;13.93;;;28.10;99.90;;;;;;5127474;28;20167;-73
2021/09/07 11:05:28;;;;;;;24.45;13.95;;;28.20;99.90;;;;;;5127702;28;20190;-73
2021/09/07 11:08:35;;;;;;;19.67;11.85;;;28.30;99.90;;;;;;5127078;28;20218;-73
2021/09/07 11:11:21;;;;;;;20.98;12.98;;;28.30;99.90;;;;;;5127189;28;20162;-73
2021/09/07 11:13:48;;;;;;;27.85;12.13;;;28.40;99.90;;;;;;5127376;28;20171;-73
2021/09/07 11:16:14;;;;;;;32.78;13.30;;;28.50;99.90;;;;;;5127167;28;20623;-73
2021/09/07 11:18:42;;;;;;;20.52;12.98;;;28.60;99.90;;;;;;5127104;28;20177;-73
2021/09/07 11:21:08;;;;;;;18.45;13.20;;;28.70;99.90;;;;;;5108931;28;20162;-73
2021/09/07 11:23:36;;;;;;;17.92;11.88;;;28.90;99.90;;;;;;5109002;28;20170;-73
2021/09/07 11:26:10;;;;;;;20.00;11.48;;;28.90;99.90;;;;;;5126924;28;20174;-73
2021/09/07 11:28:37;;;;;;;15.50;11.57;;;28.90;99.90;;;;;;5126953;28;20178;-73
2021/09/07 11:31:04;;;;;;;18.00;12.20;;;29.00;99.90;;;;;;5127160;28;20162;-73
2021/09/07 11:33:33;;;;;;;23.50;12.75;;;29.00;99.90;;;;;;5127079;28;20185;-73
2021/09/07 11:36:11;;;;;;;30.30;12.27;;;29.00;99.90;;;;;;5126961;28;20185;-72
2021/09/07 11:39:04;;;;;;;22.48;11.25;;;29.10;99.90;;;;;;5126366;28;20168;-72
2021/09/07 11:41:29;;;;;;;15.07;11.15;;;29.20;99.90;;;;;;5123092;28;20178;-72
2021/09/07 11:43:59;;;;;;;19.80;11.43;;;29.40;99.90;;;;;;5126903;28;20212;-72
2021/09/07 11:46:27;;;;;;;15.80;11.63;;;29.40;99.90;;;;;;5108378;28;20192;-72
2021/09/07 11:49:07;;;;;;;17.17;11.82;;;29.40;99.90;;;;;;5108438;28;20261;-72
2021/09/07 11:51:35;;;;;;;21.90;11.70;;;29.60;99.90;;;;;;5126682;28;20178;-73
2021/09/07 11:54:03;;;;;;;17.38;11.38;;;29.50;99.90;;;;;;5126538;28;20161;-72
2021/09/07 11:56:32;;;;;;;19.20;11.35;;;29.70;99.90;;;;;;5107894;28;20627;-72
2021/09/07 11:59:19;;;;;;;16.75;10.88;;;29.80;99.90;;;;;;5126480;28;20174;-72
2021/09/07 12:01:47;;;;;;;13.45;10.70;;;29.90;99.90;;;;;;5126646;28;20185;-72
2021/09/07 12:04:14;;;;;;;17.85;10.85;;;29.90;99.90;;;;;;5108132;28;20162;-72
2021/09/07 12:06:51;;;;;;;21.83;11.45;;;30.00;99.90;;;;;;5126223;28;20158;-72
2021/09/07 12:09:22;;;;;;;19.30;10.68;;;30.10;99.90;;;;;;5086459;28;20242;-72
2021/09/07 12:12:03;;;;;;;16.80;10.80;;;30.10;99.90;;;;;;5085533;28;20179;-72
2021/09/07 12:14:58;;;;;;;19.60;11.75;;;30.10;99.90;;;;;;5086055;28;20230;-72
2021/09/07 12:17:24;;;;;;;16.38;11.05;;;30.50;99.90;;;;;;5082994;28;20385;-72
2021/09/07 12:19:51;;;;;;;15.00;11.35;;;30.40;99.90;;;;;;5085936;28;20165;-71
2021/09/07 12:22:21;;;;;;;17.60;10.73;;;30.40;99.90;;;;;;5085689;28;20167;-72
2021/09/07 12:24:59;;;;;;;15.15;11.10;;;30.40;99.90;;;;;;5085902;28;20175;-72
2021/09/07 12:27:30;;;;;;;16.33;11.05;;;30.40;99.90;;;;;;5084998;28;20174;-72
2021/09/07 12:30:05;;;;;;;18.42;11.32;;;30.40;99.90;;;;;;5085648;28;20179;-72
2021/09/07 12:32:31;;;;;;;16.60;10.25;;;30.40;99.90;;;;;;5085592;28;20159;-72